createdAt,value
2018-04-12T00:00:52.854Z,0.00
2018-04-12T00:01:51.975Z,0.00
2018-04-12T00:02:51.907Z,0.00
2018-04-12T00:03:52.761Z,0.00
2018-04-12T00:04:52.356Z,0.00
2018-04-12T00:05:51.825Z,0.00
2018-04-12T00:06:51.841Z,0.00
2018-04-12T00:07:51.904Z,0.00
2018-04-12T00:08:51.747Z,0.00
2018-04-12T00:09:51.718Z,0.00
2018-04-12T00:10:53.264Z,0.00
2018-04-12T00:11:51.666Z,0.00
2018-04-12T00:12:51.684Z,0.00
2018-04-12T00:13:51.619Z,0.00
2018-04-12T00:14:51.592Z,0.00
2018-04-12T00:15:52.359Z,0.00
2018-04-12T00:16:51.541Z,0.00
2018-04-12T00:17:51.904Z,0.00
2018-04-12T00:18:51.484Z,0.00
2018-04-12T00:19:51.459Z,0.00
2018-04-12T00:20:51.485Z,0.00
2018-04-12T00:21:54.357Z,0.00
2018-04-12T00:22:51.408Z,0.00
2018-04-12T00:23:51.366Z,0.00
2018-04-12T00:24:51.329Z,0.00
2018-04-12T00:25:51.344Z,0.00
2018-04-12T00:26:51.282Z,0.00
2018-04-12T00:27:51.854Z,0.00
2018-04-12T00:28:51.261Z,0.00
2018-04-12T00:29:51.212Z,0.00
2018-04-12T00:30:51.171Z,0.00
2018-04-12T00:31:51.872Z,0.00
2018-04-12T00:32:51.161Z,0.00
2018-04-12T00:33:51.095Z,0.00
2018-04-12T00:34:51.865Z,0.00
2018-04-12T00:35:51.051Z,0.00
2018-04-12T00:36:51.018Z,0.00
2018-04-12T00:37:51.039Z,0.00
2018-04-12T00:38:50.970Z,0.00
2018-04-12T00:39:50.982Z,0.00
2018-04-12T00:40:50.912Z,0.00
2018-04-12T00:41:50.885Z,0.00
2018-04-12T00:42:50.862Z,0.00
2018-04-12T00:43:50.837Z,0.00
2018-04-12T00:44:50.908Z,0.00
2018-04-12T00:45:50.818Z,0.00
2018-04-12T00:46:50.755Z,0.00
2018-04-12T00:47:50.728Z,0.00
2018-04-12T00:48:50.703Z,0.00
2018-04-12T00:49:50.673Z,0.00
2018-04-12T00:50:50.730Z,0.00
2018-04-12T00:51:50.622Z,0.00
2018-04-12T00:52:51.364Z,0.00
2018-04-12T00:53:50.575Z,0.00
2018-04-12T00:54:51.360Z,0.00
2018-04-12T00:55:50.562Z,0.00
2018-04-12T00:56:50.520Z,0.00
2018-04-12T00:57:50.475Z,0.00
2018-04-12T00:58:51.374Z,0.00
2018-04-12T00:59:50.417Z,0.00
2018-04-12T01:00:50.424Z,0.00
2018-04-12T01:01:50.370Z,0.00
2018-04-12T01:02:50.336Z,0.00
2018-04-12T01:03:50.313Z,0.00
2018-04-12T01:04:50.286Z,0.00
2018-04-12T01:05:50.415Z,0.00
2018-04-12T01:06:50.275Z,0.00
2018-04-12T01:07:50.241Z,0.00
2018-04-12T01:08:50.181Z,0.00
2018-04-12T01:09:50.864Z,0.00
2018-04-12T01:10:50.129Z,0.00
2018-04-12T01:11:50.865Z,0.00
2018-04-12T01:12:50.110Z,0.00
2018-04-12T01:13:50.048Z,0.00
2018-04-12T01:14:50.868Z,0.00
2018-04-12T01:15:50.032Z,0.00
2018-04-12T01:16:49.969Z,0.00
2018-04-12T01:17:49.982Z,0.00
2018-04-12T01:18:49.916Z,0.00
2018-04-12T01:19:49.892Z,0.00
2018-04-12T01:20:49.863Z,0.00
2018-04-12T01:21:49.838Z,0.00
2018-04-12T01:22:49.915Z,0.00
2018-04-12T01:23:49.789Z,0.00
2018-04-12T01:24:49.760Z,0.00
2018-04-12T01:25:49.741Z,0.00
2018-04-12T01:26:50.367Z,0.00
2018-04-12T01:27:49.715Z,0.00
2018-04-12T01:28:49.653Z,0.00
2018-04-12T01:29:49.628Z,0.00
2018-04-12T01:30:50.369Z,0.00
2018-04-12T01:31:49.580Z,0.00
2018-04-12T01:32:49.582Z,0.00
2018-04-12T01:33:50.406Z,0.00
2018-04-12T01:34:49.494Z,0.00
2018-04-12T01:35:49.468Z,0.00
2018-04-12T01:36:49.497Z,0.00
2018-04-12T01:37:50.368Z,0.00
2018-04-12T01:38:49.399Z,0.00
2018-04-12T01:39:49.362Z,0.00
2018-04-12T01:40:49.336Z,0.00
2018-04-12T01:41:49.338Z,0.00
2018-04-12T01:42:49.320Z,0.00
2018-04-12T01:43:49.259Z,0.00
2018-04-12T01:44:49.232Z,0.00
2018-04-12T01:45:49.869Z,0.00
2018-04-12T01:46:49.185Z,0.00
2018-04-12T01:47:49.207Z,0.00
2018-04-12T01:48:49.127Z,0.00
2018-04-12T01:49:49.104Z,0.00
2018-04-12T01:50:49.076Z,0.00
2018-04-12T01:51:49.050Z,0.00
2018-04-12T01:52:49.058Z,0.00
2018-04-12T01:53:49.870Z,0.00
2018-04-12T01:54:48.968Z,0.00
2018-04-12T01:55:48.945Z,0.00
2018-04-12T01:56:49.888Z,0.00
2018-04-12T01:57:48.929Z,0.00
2018-04-12T01:58:48.861Z,0.00
2018-04-12T01:59:49.379Z,0.00
2018-04-12T02:00:48.818Z,0.00
2018-04-12T02:01:49.374Z,0.00
2018-04-12T02:02:48.789Z,0.00
2018-04-12T02:03:48.727Z,0.00
2018-04-12T02:04:48.701Z,0.00
2018-04-12T02:05:48.714Z,0.00
2018-04-12T02:06:48.655Z,0.00
2018-04-12T02:07:49.373Z,0.00
2018-04-12T02:08:48.633Z,0.00
2018-04-12T02:09:49.375Z,0.00
2018-04-12T02:10:48.664Z,0.00
2018-04-12T02:11:48.524Z,0.00
2018-04-12T02:12:48.491Z,0.00
2018-04-12T02:13:48.463Z,0.00
2018-04-12T02:14:48.440Z,0.00
2018-04-12T02:15:48.449Z,0.00
2018-04-12T02:16:48.385Z,0.00
2018-04-12T02:17:48.363Z,0.00
2018-04-12T02:18:48.331Z,0.00
2018-04-12T02:19:48.311Z,0.00
2018-04-12T02:20:48.317Z,0.00
2018-04-12T02:21:48.298Z,0.00
2018-04-12T02:22:48.933Z,0.00
2018-04-12T02:23:48.201Z,0.00
2018-04-12T02:24:48.186Z,0.00
2018-04-12T02:25:48.878Z,0.00
2018-04-12T02:26:48.840Z,0.00
2018-04-12T02:27:48.092Z,0.00
2018-04-12T02:28:48.071Z,0.00
2018-04-12T02:29:48.045Z,0.00
2018-04-12T02:30:48.020Z,0.00
2018-04-12T02:31:48.435Z,0.00
2018-04-12T02:32:47.962Z,0.00
2018-04-12T02:33:47.937Z,0.00
2018-04-12T02:34:48.883Z,0.00
2018-04-12T02:35:47.882Z,0.00
2018-04-12T02:36:47.895Z,0.00
2018-04-12T02:37:47.829Z,0.00
2018-04-12T02:38:48.380Z,0.00
2018-04-12T02:39:47.778Z,0.00
2018-04-12T02:40:47.789Z,0.00
2018-04-12T02:41:47.723Z,0.00
2018-04-12T02:42:47.697Z,0.00
2018-04-12T02:43:47.706Z,0.00
2018-04-12T02:44:47.642Z,0.00
2018-04-12T02:45:48.387Z,0.00
2018-04-12T02:46:47.596Z,0.00
2018-04-12T02:47:47.565Z,0.00
2018-04-12T02:48:47.943Z,0.00
2018-04-12T02:49:47.550Z,0.00
2018-04-12T02:50:47.483Z,0.00
2018-04-12T02:51:47.458Z,0.00
2018-04-12T02:52:48.377Z,0.00
2018-04-12T02:53:47.404Z,0.00
2018-04-12T02:54:47.436Z,0.00
2018-04-12T02:55:47.361Z,0.00
2018-04-12T02:56:47.327Z,0.00
2018-04-12T02:57:47.883Z,0.00
2018-04-12T02:58:47.275Z,0.00
2018-04-12T02:59:47.296Z,0.00
2018-04-12T03:00:47.220Z,0.00
2018-04-12T03:01:47.193Z,0.00
2018-04-12T03:02:47.166Z,0.00
2018-04-12T03:03:47.184Z,0.00
2018-04-12T03:04:47.119Z,0.00
2018-04-12T03:05:47.086Z,0.00
2018-04-12T03:06:47.062Z,0.00
2018-04-12T03:07:47.041Z,0.00
2018-04-12T03:08:47.054Z,0.00
2018-04-12T03:09:46.978Z,0.00
2018-04-12T03:10:46.960Z,0.00
2018-04-12T03:11:46.944Z,0.00
2018-04-12T03:12:46.901Z,0.00
2018-04-12T03:13:46.913Z,0.00
2018-04-12T03:14:46.893Z,0.00
2018-04-12T03:15:46.818Z,0.00
2018-04-12T03:16:46.796Z,0.00
2018-04-12T03:17:47.384Z,0.00
2018-04-12T03:18:46.739Z,0.00
2018-04-12T03:19:46.761Z,0.00
2018-04-12T03:20:46.682Z,0.00
2018-04-12T03:21:47.381Z,0.00
2018-04-12T03:22:46.633Z,0.00
2018-04-12T03:23:46.603Z,0.00
2018-04-12T03:24:46.617Z,0.00
2018-04-12T03:25:47.384Z,0.00
2018-04-12T03:26:46.562Z,0.00
2018-04-12T03:27:46.501Z,0.00
2018-04-12T03:28:47.385Z,0.00
2018-04-12T03:29:46.472Z,0.00
2018-04-12T03:30:46.417Z,0.00
2018-04-12T03:31:46.971Z,0.00
2018-04-12T03:32:46.364Z,0.00
2018-04-12T03:33:46.886Z,0.00
2018-04-12T03:34:46.318Z,0.00
2018-04-12T03:35:46.305Z,0.00
2018-04-12T03:36:46.455Z,0.00
2018-04-12T03:37:46.235Z,0.00
2018-04-12T03:38:46.201Z,0.00
2018-04-12T03:39:46.886Z,0.00
2018-04-12T03:40:46.163Z,0.00
2018-04-12T03:41:46.167Z,4.00
2018-04-12T03:42:46.888Z,4.00
2018-04-12T03:43:46.069Z,4.00
2018-04-12T03:44:46.043Z,0.00
2018-04-12T03:45:46.887Z,4.00
2018-04-12T03:46:46.013Z,4.00
2018-04-12T03:47:45.962Z,4.00
2018-04-12T03:48:46.885Z,4.00
2018-04-12T03:49:45.992Z,4.00
2018-04-12T03:50:45.911Z,8.00
2018-04-12T03:51:45.902Z,8.00
2018-04-12T03:52:45.863Z,8.00
2018-04-12T03:53:46.404Z,12.00
2018-04-12T03:54:45.773Z,16.00
2018-04-12T03:55:45.746Z,16.00
2018-04-12T03:56:45.939Z,16.00
2018-04-12T03:57:45.760Z,20.00
2018-04-12T03:58:46.391Z,24.00
2018-04-12T03:59:45.637Z,32.00
2018-04-12T04:00:45.614Z,36.00
2018-04-12T04:01:45.950Z,44.00
2018-04-12T04:02:45.594Z,52.00
2018-04-12T04:03:45.542Z,56.00
2018-04-12T04:04:45.509Z,64.00
2018-04-12T04:05:45.483Z,72.00
2018-04-12T04:06:45.940Z,84.00
2018-04-12T04:07:45.464Z,92.00
2018-04-12T04:08:45.397Z,104.00
2018-04-12T04:09:45.889Z,116.00
2018-04-12T04:10:45.344Z,132.00
2018-04-12T04:11:45.890Z,144.00
2018-04-12T04:12:45.328Z,160.00
2018-04-12T04:13:45.273Z,180.00
2018-04-12T04:14:45.890Z,200.00
2018-04-12T04:15:45.214Z,220.00
2018-04-12T04:16:45.183Z,236.00
2018-04-12T04:17:45.464Z,260.00
2018-04-12T04:18:45.132Z,284.00
2018-04-12T04:19:45.108Z,308.00
2018-04-12T04:20:45.171Z,336.00
2018-04-12T04:21:45.045Z,364.00
2018-04-12T04:22:45.019Z,392.00
2018-04-12T04:23:44.993Z,428.00
2018-04-12T04:24:45.012Z,456.00
2018-04-12T04:25:44.943Z,492.00
2018-04-12T04:26:44.915Z,532.00
2018-04-12T04:27:44.886Z,572.00
2018-04-12T04:28:44.859Z,620.00
2018-04-12T04:29:44.866Z,668.00
2018-04-12T04:30:44.807Z,720.00
2018-04-12T04:31:44.776Z,772.00
2018-04-12T04:32:44.748Z,828.00
2018-04-12T04:33:45.392Z,888.00
2018-04-12T04:34:44.747Z,948.00
2018-04-12T04:35:44.668Z,1016.00
2018-04-12T04:36:45.391Z,1088.00
2018-04-12T04:37:44.617Z,1160.00
2018-04-12T04:38:44.589Z,1236.00
2018-04-12T04:39:44.951Z,1316.00
2018-04-12T04:40:44.533Z,1388.00
2018-04-12T04:41:44.507Z,1464.00
2018-04-12T04:42:45.398Z,1540.00
2018-04-12T04:43:44.458Z,1612.00
2018-04-12T04:44:44.461Z,1680.00
2018-04-12T04:45:44.403Z,1752.00
2018-04-12T04:46:44.450Z,1816.00
2018-04-12T04:47:44.347Z,1864.00
2018-04-12T04:48:44.898Z,1924.00
2018-04-12T04:49:44.304Z,1980.00
2018-04-12T04:50:44.266Z,2036.00
2018-04-12T04:51:44.440Z,2072.00
2018-04-12T04:52:44.244Z,2132.00
2018-04-12T04:53:44.897Z,2192.00
2018-04-12T04:54:44.157Z,2260.00
2018-04-12T04:55:44.898Z,2312.00
2018-04-12T04:56:44.137Z,2364.00
2018-04-12T04:57:44.467Z,2432.00
2018-04-12T04:58:44.050Z,2532.00
2018-04-12T04:59:44.907Z,2624.00
2018-04-12T05:00:43.997Z,2708.00
2018-04-12T05:01:44.903Z,2784.00
2018-04-12T05:02:43.980Z,2848.00
2018-04-12T05:03:44.897Z,2916.00
2018-04-12T05:04:43.898Z,2976.00
2018-04-12T05:05:44.398Z,3056.00
2018-04-12T05:06:43.837Z,3080.00
2018-04-12T05:07:43.946Z,3164.00
2018-04-12T05:08:43.782Z,3228.00
2018-04-12T05:09:44.397Z,3300.00
2018-04-12T05:10:43.731Z,3376.00
2018-04-12T05:11:44.402Z,3468.00
2018-04-12T05:12:43.710Z,3588.00
2018-04-12T05:13:43.949Z,3648.00
2018-04-12T05:14:43.624Z,3676.00
2018-04-12T05:15:43.669Z,3776.00
2018-04-12T05:16:44.404Z,3856.00
2018-04-12T05:17:43.546Z,3936.00
2018-04-12T05:18:43.947Z,3956.00
2018-04-12T05:19:43.488Z,4092.00
2018-04-12T05:20:44.406Z,4172.00
2018-04-12T05:21:43.470Z,4240.00
2018-04-12T05:22:44.402Z,4280.00
2018-04-12T05:23:43.403Z,4368.00
2018-04-12T05:24:43.902Z,4388.00
2018-04-12T05:25:43.381Z,4492.00
2018-04-12T05:26:43.901Z,4528.00
2018-04-12T05:27:43.283Z,4648.00
2018-04-12T05:28:43.901Z,4676.00
2018-04-12T05:29:43.226Z,4688.00
2018-04-12T05:30:43.460Z,4740.00
2018-04-12T05:31:43.180Z,4680.00
2018-04-12T05:32:43.190Z,4760.00
2018-04-12T05:33:43.906Z,4700.00
2018-04-12T05:34:43.098Z,4528.00
2018-04-12T05:35:43.460Z,4544.00
2018-04-12T05:36:43.047Z,4852.00
2018-04-12T05:37:43.904Z,4916.00
2018-04-12T05:38:42.990Z,5000.00
2018-04-12T05:39:43.901Z,5348.00
2018-04-12T05:40:42.982Z,5388.00
2018-04-12T05:41:43.452Z,5432.00
2018-04-12T05:42:42.882Z,5492.00
2018-04-12T05:43:43.405Z,5480.00
2018-04-12T05:44:42.836Z,5540.00
2018-04-12T05:45:43.403Z,5656.00
2018-04-12T05:46:42.818Z,5628.00
2018-04-12T05:47:43.401Z,5516.00
2018-04-12T05:48:42.726Z,5368.00
2018-04-12T05:49:42.955Z,5252.00
2018-04-12T05:50:42.676Z,5240.00
2018-04-12T05:51:43.414Z,5100.00
2018-04-12T05:52:43.309Z,5060.00
2018-04-12T05:53:43.404Z,4840.00
2018-04-12T05:54:42.650Z,4760.00
2018-04-12T05:55:42.584Z,4672.00
2018-04-12T05:56:42.514Z,4824.00
2018-04-12T05:57:42.496Z,5196.00
2018-04-12T05:58:43.403Z,5492.00
2018-04-12T05:59:42.437Z,5624.00
2018-04-12T06:00:42.950Z,5648.00
2018-04-12T06:01:42.383Z,5680.00
2018-04-12T06:02:42.903Z,5792.00
2018-04-12T06:03:42.369Z,5832.00
2018-04-12T06:04:42.333Z,5916.00
2018-04-12T06:05:42.904Z,5992.00
2018-04-12T06:06:42.297Z,5980.00
2018-04-12T06:07:42.229Z,5920.00
2018-04-12T06:08:42.907Z,6060.00
2018-04-12T06:09:42.227Z,5924.00
2018-04-12T06:10:42.153Z,5888.00
2018-04-12T06:11:42.912Z,5920.00
2018-04-12T06:12:42.102Z,5972.00
2018-04-12T06:13:42.074Z,6072.00
2018-04-12T06:14:42.454Z,6108.00
2018-04-12T06:15:42.021Z,6228.00
2018-04-12T06:16:42.460Z,6312.00
2018-04-12T06:17:41.971Z,6400.00
2018-04-12T06:18:42.906Z,6400.00
2018-04-12T06:19:41.926Z,6504.00
2018-04-12T06:20:41.949Z,6620.00
2018-04-12T06:21:41.867Z,6744.00
2018-04-12T06:22:41.956Z,6848.00
2018-04-12T06:23:41.817Z,6864.00
2018-04-12T06:24:41.829Z,6936.00
2018-04-12T06:25:42.408Z,6936.00
2018-04-12T06:26:41.770Z,6948.00
2018-04-12T06:27:42.411Z,7000.00
2018-04-12T06:28:41.689Z,7024.00
2018-04-12T06:29:42.409Z,7192.00
2018-04-12T06:30:41.674Z,7332.00
2018-04-12T06:31:42.426Z,7344.00
2018-04-12T06:32:41.585Z,7288.00
2018-04-12T06:33:42.411Z,7340.00
2018-04-12T06:34:41.538Z,7356.00
2018-04-12T06:35:41.954Z,7372.00
2018-04-12T06:36:41.486Z,7416.00
2018-04-12T06:37:41.956Z,7372.00
2018-04-12T06:38:41.435Z,7380.00
2018-04-12T06:39:41.909Z,7424.00
2018-04-12T06:40:41.385Z,7384.00
2018-04-12T06:41:41.363Z,7376.00
2018-04-12T06:42:41.473Z,7308.00
2018-04-12T06:43:41.312Z,7240.00
2018-04-12T06:44:41.951Z,7308.00
2018-04-12T06:45:41.260Z,7460.00
2018-04-12T06:46:41.915Z,7600.00
2018-04-12T06:47:41.265Z,7764.00
2018-04-12T06:48:41.910Z,7896.00
2018-04-12T06:49:41.170Z,7928.00
2018-04-12T06:50:41.134Z,8020.00
2018-04-12T06:51:41.908Z,8092.00
2018-04-12T06:52:41.119Z,8124.00
2018-04-12T06:53:41.911Z,8140.00
2018-04-12T06:54:41.037Z,8220.00
2018-04-12T06:55:41.011Z,8272.00
2018-04-12T06:56:41.910Z,8308.00
2018-04-12T06:57:41.002Z,8364.00
2018-04-12T06:58:40.939Z,8528.00
2018-04-12T06:59:40.962Z,8640.00
2018-04-12T07:00:40.880Z,8724.00
2018-04-12T07:01:41.414Z,8796.00
2018-04-12T07:02:40.834Z,8880.00
2018-04-12T07:03:40.966Z,8964.00
2018-04-12T07:04:40.783Z,9064.00
2018-04-12T07:05:41.413Z,9116.00
2018-04-12T07:06:40.752Z,9196.00
2018-04-12T07:07:41.411Z,9272.00
2018-04-12T07:08:40.721Z,9304.00
2018-04-12T07:09:41.412Z,9332.00
2018-04-12T07:10:40.639Z,9356.00
2018-04-12T07:11:41.413Z,9392.00
2018-04-12T07:12:40.589Z,9460.00
2018-04-12T07:13:40.970Z,9548.00
2018-04-12T07:14:40.535Z,9620.00
2018-04-12T07:15:41.412Z,9720.00
2018-04-12T07:16:40.488Z,9840.00
2018-04-12T07:17:41.414Z,9992.00
2018-04-12T07:18:40.480Z,10176.00
2018-04-12T07:19:40.911Z,10356.00
2018-04-12T07:20:40.440Z,10556.00
2018-04-12T07:21:40.918Z,10728.00
2018-04-12T07:22:40.341Z,10888.00
2018-04-12T07:23:40.918Z,11008.00
2018-04-12T07:24:40.295Z,11124.00
2018-04-12T07:25:40.465Z,11268.00
2018-04-12T07:26:40.248Z,11404.00
2018-04-12T07:27:40.915Z,11468.00
2018-04-12T07:28:40.198Z,11404.00
2018-04-12T07:29:40.917Z,11292.00
2018-04-12T07:30:40.191Z,11132.00
2018-04-12T07:31:40.921Z,10992.00
2018-04-12T07:32:40.107Z,10908.00
2018-04-12T07:33:40.117Z,10872.00
2018-04-12T07:34:40.956Z,10884.00
2018-04-12T07:35:40.029Z,10960.00
2018-04-12T07:36:40.034Z,11128.00
2018-04-12T07:37:39.986Z,11428.00
2018-04-12T07:38:39.958Z,11796.00
2018-04-12T07:39:40.928Z,12292.00
2018-04-12T07:40:39.963Z,12884.00
2018-04-12T07:41:40.422Z,13328.00
2018-04-12T07:42:39.867Z,13820.00
2018-04-12T07:43:40.428Z,14036.00
2018-04-12T07:44:39.820Z,14256.00
2018-04-12T07:45:39.833Z,14520.00
2018-04-12T07:46:39.805Z,14868.00
2018-04-12T07:47:40.425Z,15208.00
2018-04-12T07:48:39.720Z,15604.00
2018-04-12T07:49:39.752Z,15804.00
2018-04-12T07:50:39.678Z,15852.00
2018-04-12T07:51:40.418Z,15812.00
2018-04-12T07:52:39.635Z,15580.00
2018-04-12T07:53:40.419Z,15516.00
2018-04-12T07:54:39.626Z,15408.00
2018-04-12T07:55:39.565Z,15248.00
2018-04-12T07:56:40.438Z,15052.00
2018-04-12T07:57:39.518Z,14924.00
2018-04-12T07:58:40.420Z,14784.00
2018-04-12T07:59:39.959Z,14700.00
2018-04-12T08:00:39.484Z,14632.00
2018-04-12T08:01:40.424Z,14636.00
2018-04-12T08:02:39.407Z,14760.00
2018-04-12T08:03:39.404Z,14852.00
2018-04-12T08:04:39.400Z,14912.00
2018-04-12T08:05:39.471Z,14964.00
2018-04-12T08:06:39.346Z,15076.00
2018-04-12T08:07:39.291Z,15144.00
2018-04-12T08:08:39.270Z,15048.00
2018-04-12T08:09:39.243Z,14796.00
2018-04-12T08:10:39.270Z,14544.00
2018-04-12T08:11:39.330Z,14368.00
2018-04-12T08:12:39.179Z,14232.00
2018-04-12T08:13:39.161Z,14196.00
2018-04-12T08:14:39.138Z,14160.00
2018-04-12T08:15:39.473Z,14144.00
2018-04-12T08:16:39.126Z,14236.00
2018-04-12T08:17:39.069Z,14232.00
2018-04-12T08:18:39.045Z,14220.00
2018-04-12T08:19:39.024Z,14244.00
2018-04-12T08:20:39.927Z,14272.00
2018-04-12T08:21:39.480Z,14312.00
2018-04-12T08:22:38.965Z,14356.00
2018-04-12T08:23:38.953Z,14388.00
2018-04-12T08:24:38.932Z,14448.00
2018-04-12T08:25:39.429Z,14556.00
2018-04-12T08:26:38.921Z,14792.00
2018-04-12T08:27:38.854Z,14976.00
2018-04-12T08:28:38.865Z,15140.00
2018-04-12T08:29:38.812Z,15176.00
2018-04-12T08:30:38.783Z,15208.00
2018-04-12T08:31:38.824Z,15288.00
2018-04-12T08:32:38.739Z,15456.00
2018-04-12T08:33:38.725Z,15688.00
2018-04-12T08:34:38.742Z,15820.00
2018-04-12T08:35:38.678Z,15948.00
2018-04-12T08:36:38.705Z,15972.00
2018-04-12T08:37:38.632Z,15884.00
2018-04-12T08:38:38.619Z,15768.00
2018-04-12T08:39:39.443Z,15736.00
2018-04-12T08:40:38.576Z,15964.00
2018-04-12T08:41:38.591Z,16388.00
2018-04-12T08:42:38.589Z,16832.00
2018-04-12T08:43:38.506Z,16768.00
2018-04-12T08:44:38.484Z,16768.00
2018-04-12T08:45:38.460Z,16736.00
2018-04-12T08:46:38.447Z,16672.00
2018-04-12T08:47:38.460Z,16424.00
2018-04-12T08:48:38.405Z,16356.00
2018-04-12T08:49:38.437Z,16108.00
2018-04-12T08:50:38.361Z,15920.00
2018-04-12T08:51:39.380Z,15784.00
2018-04-12T08:52:38.933Z,15840.00
2018-04-12T08:53:38.356Z,15944.00
2018-04-12T08:54:38.280Z,15868.00
2018-04-12T08:55:38.266Z,15756.00
2018-04-12T08:56:38.234Z,15648.00
2018-04-12T08:57:38.219Z,15704.00
2018-04-12T08:58:38.226Z,15892.00
2018-04-12T08:59:38.200Z,16336.00
2018-04-12T09:00:38.155Z,17152.00
2018-04-12T09:01:38.128Z,17536.00
2018-04-12T09:02:38.119Z,17760.00
2018-04-12T09:03:38.089Z,17888.00
2018-04-12T09:04:38.099Z,17952.00
2018-04-12T09:05:38.058Z,17920.00
2018-04-12T09:06:38.030Z,17920.00
2018-04-12T09:07:38.953Z,17888.00
2018-04-12T09:08:37.989Z,17568.00
2018-04-12T09:09:37.995Z,16928.00
2018-04-12T09:10:37.994Z,16320.00
2018-04-12T09:11:37.929Z,16172.00
2018-04-12T09:12:37.901Z,16148.00
2018-04-12T09:13:37.881Z,16280.00
2018-04-12T09:14:37.860Z,16424.00
2018-04-12T09:15:37.881Z,16896.00
2018-04-12T09:16:37.819Z,17504.00
2018-04-12T09:17:37.982Z,18144.00
2018-04-12T09:18:37.778Z,18432.00
2018-04-12T09:19:37.758Z,18208.00
2018-04-12T09:20:37.788Z,17856.00
2018-04-12T09:21:37.734Z,17440.00
2018-04-12T09:22:38.030Z,17184.00
2018-04-12T09:23:37.685Z,16688.00
2018-04-12T09:24:37.654Z,16332.00
2018-04-12T09:25:37.634Z,15948.00
2018-04-12T09:26:37.644Z,15364.00
2018-04-12T09:27:38.448Z,14740.00
2018-04-12T09:28:37.569Z,14076.00
2018-04-12T09:29:37.552Z,13836.00
2018-04-12T09:30:37.528Z,13444.00
2018-04-12T09:31:37.542Z,13252.00
2018-04-12T09:32:37.992Z,13180.00
2018-04-12T09:33:37.468Z,13040.00
2018-04-12T09:34:37.446Z,12936.00
2018-04-12T09:35:37.427Z,12932.00
2018-04-12T09:36:37.408Z,12692.00
2018-04-12T09:37:37.491Z,12476.00
2018-04-12T09:38:37.366Z,12372.00
2018-04-12T09:39:37.375Z,12460.00
2018-04-12T09:40:37.323Z,12640.00
2018-04-12T09:41:37.299Z,12936.00
2018-04-12T09:42:37.501Z,13304.00
2018-04-12T09:43:37.259Z,13764.00
2018-04-12T09:44:37.244Z,14560.00
2018-04-12T09:45:37.227Z,15136.00
2018-04-12T09:46:37.197Z,15400.00
2018-04-12T09:47:37.485Z,15604.00
2018-04-12T09:48:37.189Z,15668.00
2018-04-12T09:49:37.173Z,15788.00
2018-04-12T09:50:37.149Z,15956.00
2018-04-12T09:51:37.094Z,16172.00
2018-04-12T09:52:37.085Z,16380.00
2018-04-12T09:53:37.052Z,16456.00
2018-04-12T09:54:37.037Z,16476.00
2018-04-12T09:55:37.052Z,16460.00
2018-04-12T09:56:36.992Z,16144.00
2018-04-12T09:57:36.972Z,15840.00
2018-04-12T09:58:36.949Z,15532.00
2018-04-12T09:59:36.938Z,15092.00
2018-04-12T10:00:36.962Z,14816.00
2018-04-12T10:01:36.888Z,14640.00
2018-04-12T10:02:36.869Z,14740.00
2018-04-12T10:03:36.857Z,15068.00
2018-04-12T10:04:36.828Z,15420.00
2018-04-12T10:05:36.835Z,15792.00
2018-04-12T10:06:37.537Z,16248.00
2018-04-12T10:07:36.803Z,16576.00
2018-04-12T10:08:36.744Z,16992.00
2018-04-12T10:09:36.731Z,17248.00
2018-04-12T10:10:36.708Z,17728.00
2018-04-12T10:11:36.692Z,18048.00
2018-04-12T10:12:36.999Z,18368.00
2018-04-12T10:13:36.646Z,18560.00
2018-04-12T10:14:36.630Z,18560.00
2018-04-12T10:15:36.612Z,18432.00
2018-04-12T10:16:36.644Z,18272.00
2018-04-12T10:17:36.602Z,18272.00
2018-04-12T10:18:36.550Z,18272.00
2018-04-12T10:19:36.535Z,18112.00
2018-04-12T10:20:36.515Z,17920.00
2018-04-12T10:21:36.585Z,17824.00
2018-04-12T10:22:36.480Z,17856.00
2018-04-12T10:23:36.451Z,18112.00
2018-04-12T10:24:36.444Z,18592.00
2018-04-12T10:25:36.479Z,18912.00
2018-04-12T10:26:36.447Z,19296.00
2018-04-12T10:27:36.392Z,19648.00
2018-04-12T10:28:36.356Z,20032.00
2018-04-12T10:29:36.341Z,20320.00
2018-04-12T10:30:36.328Z,20224.00
2018-04-12T10:31:36.522Z,19840.00
2018-04-12T10:32:36.296Z,19520.00
2018-04-12T10:33:36.265Z,19040.00
2018-04-12T10:34:36.245Z,18624.00
2018-04-12T10:35:36.230Z,18176.00
2018-04-12T10:36:36.243Z,17760.00
2018-04-12T10:37:36.228Z,17888.00
2018-04-12T10:38:36.168Z,18336.00
2018-04-12T10:39:36.160Z,19040.00
2018-04-12T10:40:36.130Z,19648.00
2018-04-12T10:41:36.125Z,20320.00
2018-04-12T10:42:36.136Z,21056.00
2018-04-12T10:43:36.078Z,21760.00
2018-04-12T10:44:36.057Z,21344.00
2018-04-12T10:45:36.042Z,20448.00
2018-04-12T10:46:36.024Z,19648.00
2018-04-12T10:47:36.033Z,18336.00
2018-04-12T10:48:35.983Z,17504.00
2018-04-12T10:49:35.977Z,16928.00
2018-04-12T10:50:35.945Z,16216.00
2018-04-12T10:51:35.935Z,15188.00
2018-04-12T10:52:35.966Z,14416.00
2018-04-12T10:53:35.894Z,14108.00
2018-04-12T10:54:35.889Z,14216.00
2018-04-12T10:55:35.861Z,14348.00
2018-04-12T10:56:35.851Z,14480.00
2018-04-12T10:57:35.862Z,14480.00
2018-04-12T10:58:35.816Z,13816.00
2018-04-12T10:59:35.791Z,13020.00
2018-04-12T11:00:36.473Z,11992.00
2018-04-12T11:01:35.745Z,11200.00
2018-04-12T11:02:35.769Z,10316.00
2018-04-12T11:03:35.718Z,9924.00
2018-04-12T11:04:35.725Z,10360.00
2018-04-12T11:05:36.481Z,10840.00
2018-04-12T11:06:35.656Z,11236.00
2018-04-12T11:07:35.636Z,11588.00
2018-04-12T11:08:35.619Z,11720.00
2018-04-12T11:09:35.646Z,11580.00
2018-04-12T11:10:36.464Z,11196.00
2018-04-12T11:11:35.598Z,10772.00
2018-04-12T11:12:35.551Z,10256.00
2018-04-12T11:13:35.528Z,9636.00
2018-04-12T11:14:35.546Z,9060.00
2018-04-12T11:15:35.495Z,8584.00
2018-04-12T11:16:35.509Z,8132.00
2018-04-12T11:17:35.455Z,7768.00
2018-04-12T11:18:35.440Z,7472.00
2018-04-12T11:19:35.446Z,7252.00
2018-04-12T11:20:35.399Z,7064.00
2018-04-12T11:21:35.383Z,6924.00
2018-04-12T11:22:35.362Z,6772.00
2018-04-12T11:23:35.343Z,6688.00
2018-04-12T11:24:35.363Z,6616.00
2018-04-12T11:25:35.318Z,6584.00
2018-04-12T11:26:35.288Z,6552.00
2018-04-12T11:27:35.264Z,6512.00
2018-04-12T11:28:35.338Z,6464.00
2018-04-12T11:29:35.230Z,6444.00
2018-04-12T11:30:35.207Z,6428.00
2018-04-12T11:31:35.211Z,6480.00
2018-04-12T11:32:35.168Z,6496.00
2018-04-12T11:33:35.207Z,6432.00
2018-04-12T11:34:35.973Z,6440.00
2018-04-12T11:35:35.114Z,6440.00
2018-04-12T11:36:35.094Z,6420.00
2018-04-12T11:37:35.080Z,6424.00
2018-04-12T11:38:35.083Z,6308.00
2018-04-12T11:39:35.043Z,6480.00
2018-04-12T11:40:35.043Z,7052.00
2018-04-12T11:41:35.009Z,7116.00
2018-04-12T11:42:34.973Z,7308.00
2018-04-12T11:43:34.991Z,6728.00
2018-04-12T11:44:34.935Z,6564.00
2018-04-12T11:45:34.927Z,7240.00
2018-04-12T11:46:34.936Z,8452.00
2018-04-12T11:47:34.895Z,7540.00
2018-04-12T11:48:34.859Z,7340.00
2018-04-12T11:49:34.851Z,7048.00
2018-04-12T11:50:35.032Z,6476.00
2018-04-12T11:51:34.813Z,6396.00
2018-04-12T11:52:34.786Z,6456.00
2018-04-12T11:53:34.793Z,6264.00
2018-04-12T11:54:34.746Z,6780.00
2018-04-12T11:55:34.810Z,6720.00
2018-04-12T11:56:34.725Z,6936.00
2018-04-12T11:57:34.694Z,7620.00
2018-04-12T11:58:34.672Z,7892.00
2018-04-12T11:59:34.658Z,7376.00
2018-04-12T12:00:34.666Z,7404.00
2018-04-12T12:01:34.617Z,8252.00
2018-04-12T12:02:34.599Z,8740.00
2018-04-12T12:03:34.582Z,8424.00
2018-04-12T12:04:34.556Z,9720.00
2018-04-12T12:05:34.590Z,10216.00
2018-04-12T12:06:35.487Z,10168.00
2018-04-12T12:07:34.508Z,10100.00
2018-04-12T12:08:34.485Z,8260.00
2018-04-12T12:09:34.465Z,7396.00
2018-04-12T12:10:34.486Z,7844.00
2018-04-12T12:11:34.432Z,8528.00
2018-04-12T12:12:34.410Z,9152.00
2018-04-12T12:13:34.398Z,9024.00
2018-04-12T12:14:34.370Z,8664.00
2018-04-12T12:15:34.411Z,8196.00
2018-04-12T12:16:34.332Z,8232.00
2018-04-12T12:17:34.340Z,8804.00
2018-04-12T12:18:34.298Z,8200.00
2018-04-12T12:19:34.284Z,9204.00
2018-04-12T12:20:34.309Z,9972.00
2018-04-12T12:21:34.988Z,8856.00